createdAt,value
2018-11-13T00:00:54.845Z,926.4
2018-11-13T00:01:54.845Z,926.14
2018-11-13T00:02:54.907Z,926.44
2018-11-13T00:03:55.840Z,926.39
2018-11-13T00:04:55.155Z,926.19
2018-11-13T00:05:54.854Z,926.26
2018-11-13T00:06:54.860Z,926.22
2018-11-13T00:07:54.829Z,926.47
2018-11-13T00:08:54.913Z,926.43
2018-11-13T00:09:54.890Z,926.41
2018-11-13T00:10:54.859Z,926.77
2018-11-13T00:11:54.877Z,927.29
2018-11-13T00:12:54.877Z,927.56
2018-11-13T00:13:54.864Z,927.55
2018-11-13T00:14:54.844Z,927.55
2018-11-13T00:15:54.846Z,927.6
2018-11-13T00:16:54.884Z,927.52
2018-11-13T00:17:54.898Z,928.26
2018-11-13T00:18:54.904Z,928.1
2018-11-13T00:19:54.884Z,928.56
2018-11-13T00:20:54.881Z,928.93
2018-11-13T00:21:54.873Z,929.49
2018-11-13T00:22:54.857Z,929.27
2018-11-13T00:23:54.899Z,929.68
2018-11-13T00:24:54.874Z,930.07
2018-11-13T00:25:54.884Z,930.2
2018-11-13T00:26:54.885Z,930.9
2018-11-13T00:27:54.859Z,931.09
2018-11-13T00:28:54.877Z,931.17
2018-11-13T00:29:54.876Z,931.55
2018-11-13T00:30:54.909Z,932.17
2018-11-13T00:31:54.882Z,932.03
2018-11-13T00:32:54.896Z,932.29
2018-11-13T00:33:54.897Z,931.75
2018-11-13T00:34:55.071Z,931.4
2018-11-13T00:35:54.877Z,931.25
2018-11-13T00:36:54.883Z,931.42
2018-11-13T00:37:54.888Z,931.43
2018-11-13T00:38:54.894Z,931.58
2018-11-13T00:39:54.908Z,931.67
2018-11-13T00:40:54.908Z,931.87
2018-11-13T00:41:54.893Z,932.23
2018-11-13T00:42:54.887Z,932.78
2018-11-13T00:43:54.947Z,932.29
2018-11-13T00:44:54.970Z,932.47
2018-11-13T00:45:55.208Z,932.22
2018-11-13T00:46:54.888Z,932.4
2018-11-13T00:47:54.896Z,932.61
2018-11-13T00:48:54.896Z,932.66
2018-11-13T00:49:54.904Z,932.46
2018-11-13T00:50:55.044Z,932.96
2018-11-13T00:51:54.928Z,932.84
2018-11-13T00:52:54.918Z,932.96
2018-11-13T00:53:54.935Z,933.13
2018-11-13T00:54:54.931Z,933.05
2018-11-13T00:55:54.933Z,933.74
2018-11-13T00:56:54.919Z,933.58
2018-11-13T00:57:54.916Z,934.05
2018-11-13T00:58:55.249Z,934.38
2018-11-13T00:59:54.931Z,934.78
2018-11-13T01:00:55.336Z,935.01
2018-11-13T01:01:54.983Z,935.72
2018-11-13T01:02:54.916Z,935.44
2018-11-13T01:03:54.921Z,935.94
2018-11-13T01:04:54.947Z,935.5
2018-11-13T01:05:55.140Z,935.77
2018-11-13T01:06:54.923Z,936.42
2018-11-13T01:07:54.929Z,936.64
2018-11-13T01:08:54.954Z,937.01
2018-11-13T01:15:34.793Z,938.61
2018-11-13T01:16:34.665Z,938.49
2018-11-13T01:17:34.677Z,939.22
2018-11-13T01:18:34.677Z,939.76
2018-11-13T01:19:34.695Z,940.52
2018-11-13T01:20:34.695Z,940.98
2018-11-13T01:21:34.674Z,941.08
2018-11-13T01:22:35.025Z,941
2018-11-13T01:23:34.682Z,941.6
2018-11-13T01:24:34.686Z,941.06
2018-11-13T01:25:34.692Z,942.03
2018-11-13T01:26:34.697Z,941.72
2018-11-13T01:27:34.679Z,941.16
2018-11-13T01:28:34.681Z,941.9
2018-11-13T01:29:34.691Z,941.17
2018-11-13T01:30:34.759Z,941.52
2018-11-13T01:31:34.705Z,940.13
2018-11-13T01:32:34.707Z,939.74
2018-11-13T01:33:34.713Z,939.59
2018-11-13T01:34:34.719Z,938.78
2018-11-13T01:35:34.699Z,938.2
2018-11-13T01:36:34.707Z,937.38
2018-11-13T01:37:34.742Z,936.82
2018-11-13T01:38:34.749Z,936.69
2018-11-13T01:39:34.785Z,936.31
2018-11-13T01:40:34.728Z,936.91
2018-11-13T01:41:34.761Z,936.6
2018-11-13T01:42:34.711Z,936.31
2018-11-13T01:43:34.708Z,936.4
2018-11-13T01:44:34.711Z,936.31
2018-11-13T01:45:34.721Z,936.66
2018-11-13T01:46:34.725Z,936.74
2018-11-13T01:47:34.702Z,936.68
2018-11-13T01:48:34.717Z,937.12
2018-11-13T01:49:34.773Z,936.81
2018-11-13T01:50:34.718Z,936.76
2018-11-13T01:51:34.731Z,936.53
2018-11-13T01:52:35.016Z,936.17
2018-11-13T01:53:34.814Z,936.33
2018-11-13T01:54:34.746Z,936.32
2018-11-13T01:55:34.760Z,935.78
2018-11-13T01:56:34.736Z,935.99
2018-11-13T01:57:34.730Z,935.51
2018-11-13T01:58:34.754Z,934.86
2018-11-13T01:59:34.757Z,934.65
2018-11-13T02:00:34.757Z,934.83
2018-11-13T02:01:34.762Z,934.96
2018-11-13T02:02:34.836Z,934.27
2018-11-13T02:03:34.748Z,934.2
2018-11-13T02:04:34.748Z,933.85
2018-11-13T02:05:34.757Z,934.14
2018-11-13T02:06:34.752Z,933.51
2018-11-13T02:07:34.742Z,933.33
2018-11-13T02:08:34.742Z,933.01
2018-11-13T02:09:34.752Z,932.92
2018-11-13T02:10:34.948Z,932.85
2018-11-13T02:11:34.772Z,933.3
2018-11-13T02:12:34.759Z,932.46
2018-11-13T02:13:34.771Z,931.61
2018-11-13T02:14:34.770Z,931.2
2018-11-13T02:15:34.777Z,930.41
2018-11-13T02:16:34.770Z,930.02
2018-11-13T02:17:34.757Z,929.51
2018-11-13T02:18:34.763Z,929.22
2018-11-13T02:19:35.074Z,928.77
2018-11-13T02:20:34.778Z,928.11
2018-11-13T02:21:34.781Z,927.09
2018-11-13T02:22:34.767Z,926.54
2018-11-13T02:23:34.783Z,925.92
2018-11-13T02:24:34.786Z,925.29
2018-11-13T02:25:34.781Z,923.97
2018-11-13T02:26:34.780Z,923.55
2018-11-13T02:27:34.788Z,922.81
2018-11-13T02:28:34.783Z,922.2
2018-11-13T02:29:34.790Z,921.91
2018-11-13T02:30:34.784Z,921.6
2018-11-13T02:31:34.785Z,920.9
2018-11-13T02:32:34.794Z,920.47
2018-11-13T02:33:34.809Z,920.4
2018-11-13T02:34:34.804Z,919.32
2018-11-13T02:35:34.865Z,918.77
2018-11-13T02:36:34.780Z,918.24
2018-11-13T02:37:34.797Z,917.51
2018-11-13T02:38:34.795Z,917.56
2018-11-13T02:39:34.798Z,917.33
2018-11-13T02:40:34.812Z,917.14
2018-11-13T02:41:34.811Z,916.76
2018-11-13T02:42:34.800Z,916.62
2018-11-13T02:43:34.843Z,915.83
2018-11-13T02:44:34.800Z,915.84
2018-11-13T02:45:34.820Z,915.89
2018-11-13T02:46:34.810Z,915.47
2018-11-13T02:47:34.803Z,915.38
2018-11-13T02:48:34.808Z,915.71
2018-11-13T02:49:35.104Z,916.57
2018-11-13T02:50:34.840Z,916.15
2018-11-13T02:51:35.165Z,916.8
2018-11-13T02:52:34.817Z,916.43
2018-11-13T02:53:34.894Z,916.65
2018-11-13T02:54:34.831Z,917.11
2018-11-13T02:55:34.821Z,916.77
2018-11-13T02:56:34.806Z,917.05
2018-11-13T02:57:34.830Z,916.38
2018-11-13T02:58:34.833Z,916.53
2018-11-13T02:59:34.829Z,916.59
2018-11-13T03:00:34.842Z,916.27
2018-11-13T03:01:34.851Z,916.05
2018-11-13T03:02:34.816Z,915.96
2018-11-13T03:03:34.826Z,915.7
2018-11-13T03:04:34.831Z,915.22
2018-11-13T03:05:34.839Z,915.17
2018-11-13T03:06:34.880Z,914.37
2018-11-13T03:07:34.835Z,913.75
2018-11-13T03:08:34.854Z,913.68
2018-11-13T03:09:34.832Z,913.96
2018-11-13T03:10:34.839Z,914.01
2018-11-13T03:11:34.843Z,914.24
2018-11-13T03:12:34.924Z,914.39
2018-11-13T03:13:34.877Z,913.86
2018-11-13T03:14:34.866Z,914.45
2018-11-13T03:15:34.843Z,914.72
2018-11-13T03:16:34.875Z,914.97
2018-11-13T03:17:34.860Z,915.25
2018-11-13T03:18:34.891Z,915.35
2018-11-13T03:19:34.856Z,914.85
2018-11-13T03:20:34.866Z,915.12
2018-11-13T03:21:34.847Z,915.23
2018-11-13T03:22:34.880Z,915.14
2018-11-13T03:23:34.882Z,915.48
2018-11-13T03:24:34.870Z,915.37
2018-11-13T03:25:34.867Z,914.5
2018-11-13T03:26:34.882Z,913.91
2018-11-13T03:27:34.854Z,913.87
2018-11-13T03:28:34.887Z,913.76
2018-11-13T03:29:34.872Z,913.16
2018-11-13T03:30:34.880Z,913.03
2018-11-13T03:31:34.964Z,912.61
2018-11-13T03:32:34.893Z,912.39
2018-11-13T03:33:34.898Z,912.31
2018-11-13T03:34:34.903Z,912.35
2018-11-13T03:35:34.882Z,911.8
2018-11-13T03:36:34.877Z,911.67
2018-11-13T03:37:34.888Z,911.1
2018-11-13T03:38:34.886Z,910.13
2018-11-13T03:39:34.903Z,910.69
2018-11-13T03:40:34.892Z,910.57
2018-11-13T03:41:34.898Z,911.01
2018-11-13T03:42:34.981Z,910.71
2018-11-13T03:43:34.953Z,910.75
2018-11-13T03:44:34.892Z,911.34
2018-11-13T03:45:35.027Z,911.61
2018-11-13T03:46:34.908Z,911.83
2018-11-13T03:47:34.893Z,911.75
2018-11-13T03:48:34.893Z,911.53
2018-11-13T03:49:34.887Z,911.76
2018-11-13T03:50:34.897Z,912.02
2018-11-13T03:51:34.897Z,912.29
2018-11-13T03:52:34.918Z,912.09
2018-11-13T03:53:34.917Z,912.54
2018-11-13T03:54:34.930Z,912.7
2018-11-13T03:55:34.893Z,912.91
2018-11-13T03:56:34.933Z,912.93
2018-11-13T03:57:34.909Z,912.64
2018-11-13T03:58:34.916Z,912.93
2018-11-13T03:59:34.918Z,913.32
2018-11-13T04:00:34.931Z,913.19
2018-11-13T04:01:34.913Z,913.35
2018-11-13T04:02:34.911Z,913.5
2018-11-13T04:03:34.929Z,913.64
2018-11-13T04:04:34.918Z,914.24
2018-11-13T04:05:34.928Z,914.37
2018-11-13T04:06:34.976Z,914.45
2018-11-13T04:07:34.920Z,914.57
2018-11-13T04:08:34.928Z,914.42
2018-11-13T04:09:34.919Z,914.34
2018-11-13T04:10:34.925Z,914.2
2018-11-13T04:11:34.938Z,914.06
2018-11-13T04:12:34.937Z,914.03
2018-11-13T04:13:34.942Z,913.64
2018-11-13T04:14:34.928Z,913.59
2018-11-13T04:15:34.925Z,913.16
2018-11-13T04:16:34.963Z,913.27
2018-11-13T04:17:34.935Z,912.99
2018-11-13T04:18:34.953Z,912.77
2018-11-13T04:19:34.987Z,912.38
2018-11-13T04:20:34.922Z,912.89
2018-11-13T04:21:34.940Z,912.57
2018-11-13T04:22:34.971Z,911.96
2018-11-13T04:23:34.947Z,912.29
2018-11-13T04:24:34.953Z,912.52
2018-11-13T04:25:34.995Z,912.31
2018-11-13T04:26:34.967Z,912.56
2018-11-13T04:27:34.957Z,912.68
2018-11-13T04:28:34.942Z,912.47
2018-11-13T04:29:34.948Z,912.35
2018-11-13T04:30:35.004Z,912.24
2018-11-13T04:31:34.975Z,911.9
2018-11-13T04:32:34.975Z,911.54
2018-11-13T04:33:34.989Z,911.08
2018-11-13T04:34:34.982Z,911.02
2018-11-13T04:35:34.965Z,910.4
2018-11-13T04:36:35.042Z,910.03
2018-11-13T04:37:35.009Z,910.01
2018-11-13T04:38:34.984Z,910.21
2018-11-13T04:39:34.994Z,909.97
2018-11-13T04:40:34.984Z,909.27
2018-11-13T04:41:34.973Z,910.02
2018-11-13T04:42:34.992Z,909.39
2018-11-13T04:43:34.976Z,909.42
2018-11-13T04:44:34.995Z,908.87
2018-11-13T04:45:35.035Z,908.9
2018-11-13T04:46:35.002Z,909.43
2018-11-13T04:47:34.998Z,909.01
2018-11-13T04:48:34.983Z,909.69
2018-11-13T04:49:34.987Z,909.17
2018-11-13T04:50:35.013Z,909.67
2018-11-13T04:51:35.858Z,910.06
2018-11-13T04:52:35.280Z,910.46
2018-11-13T04:53:36.312Z,910.14
2018-11-13T04:54:34.993Z,910.61
2018-11-13T04:55:35.060Z,911.42
2018-11-13T04:56:34.997Z,911.44
2018-11-13T04:57:35.008Z,911.43
2018-11-13T04:58:35.054Z,911.66
2018-11-13T04:59:35.030Z,911.3
2018-11-13T05:00:35.013Z,911.34
2018-11-13T05:01:35.002Z,911.37
2018-11-13T05:02:35.028Z,911.81
2018-11-13T05:03:35.008Z,911.96
2018-11-13T05:04:35.006Z,911.81
2018-11-13T05:05:35.097Z,911.82
2018-11-13T05:06:35.020Z,912.12
2018-11-13T05:07:35.007Z,912.18
2018-11-13T05:08:35.016Z,912.48
2018-11-13T05:09:35.081Z,912.29
2018-11-13T05:10:35.012Z,912.58
2018-11-13T05:11:35.129Z,912.25
2018-11-13T05:12:35.045Z,912.12
2018-11-13T05:13:35.031Z,912.08
2018-11-13T05:14:35.013Z,911.98
2018-11-13T05:15:35.022Z,912.25
2018-11-13T05:16:35.027Z,912.03
2018-11-13T05:17:35.034Z,912.36
2018-11-13T05:18:35.027Z,912.58
2018-11-13T05:19:35.037Z,912.45
2018-11-13T05:20:35.059Z,913
2018-11-13T05:21:35.038Z,912.64
2018-11-13T05:22:35.035Z,912.91
2018-11-13T05:23:35.044Z,912.67
2018-11-13T05:24:35.048Z,913.03
2018-11-13T05:25:35.078Z,913.31
2018-11-13T05:26:35.051Z,913.62
2018-11-13T05:27:36.250Z,913.57
2018-11-13T05:28:35.035Z,913.54
2018-11-13T05:29:35.043Z,913.39
2018-11-13T05:30:35.081Z,913.41
2018-11-13T05:31:35.050Z,912.17
2018-11-13T05:32:35.192Z,912.8
2018-11-13T05:33:35.065Z,912.57
2018-11-13T05:34:35.042Z,912.54
2018-11-13T05:35:35.162Z,913.19
2018-11-13T05:36:35.118Z,912.82
2018-11-13T05:37:35.055Z,912.71
2018-11-13T05:38:35.074Z,913.36
2018-11-13T05:39:35.097Z,912.96
2018-11-13T05:40:35.056Z,913.26
2018-11-13T05:41:35.172Z,913.03
2018-11-13T05:42:35.072Z,913.2
2018-11-13T05:43:35.056Z,913
2018-11-13T05:44:35.082Z,913.21
2018-11-13T05:45:35.281Z,912.98
2018-11-13T05:46:35.089Z,913.24
2018-11-13T05:47:35.078Z,913.2
2018-11-13T05:48:35.070Z,912.74
2018-11-13T05:49:35.108Z,912.71
2018-11-13T05:50:35.070Z,912.29
2018-11-13T05:51:35.077Z,912.68
2018-11-13T05:52:35.087Z,912.39
2018-11-13T05:53:35.092Z,911.92
2018-11-13T05:54:35.081Z,911.66
2018-11-13T05:55:35.383Z,911.44
2018-11-13T05:56:35.086Z,911.13
2018-11-13T05:57:35.124Z,910.88
2018-11-13T05:58:35.391Z,911.33
2018-11-13T05:59:35.118Z,911.29
2018-11-13T06:00:36.165Z,910.8
2018-11-13T06:01:35.433Z,910.99
2018-11-13T06:02:35.098Z,910.9
2018-11-13T06:03:35.139Z,910.8
2018-11-13T06:04:35.096Z,911.43
2018-11-13T06:05:35.105Z,912.11
2018-11-13T06:06:35.141Z,912.27
2018-11-13T06:07:35.116Z,912.43
2018-11-13T06:08:35.177Z,912.62
2018-11-13T06:09:35.103Z,912.49
2018-11-13T06:10:35.768Z,912.6
2018-11-13T06:11:35.104Z,912.44
2018-11-13T06:12:35.111Z,912.71
2018-11-13T06:13:35.151Z,912.83
2018-11-13T06:14:35.138Z,914.15
2018-11-13T06:15:35.096Z,915.22
2018-11-13T06:16:35.138Z,915.58
2018-11-13T06:17:35.144Z,916.33
2018-11-13T06:18:35.123Z,917.23
2018-11-13T06:19:35.135Z,918
2018-11-13T06:20:35.138Z,918.75
2018-11-13T06:21:35.175Z,918.97
2018-11-13T06:22:35.123Z,919.89
2018-11-13T06:23:35.114Z,920.38
2018-11-13T06:24:35.203Z,920.47
2018-11-13T06:25:35.130Z,920.79
2018-11-13T06:26:35.134Z,921.19
2018-11-13T06:27:35.156Z,921.77
2018-11-13T06:28:35.155Z,921.61
2018-11-13T06:29:35.152Z,921.58
2018-11-13T06:30:35.162Z,921.83
2018-11-13T06:31:35.142Z,921.83
2018-11-13T06:32:35.141Z,921.88
2018-11-13T06:33:35.147Z,922.28
2018-11-13T06:34:35.154Z,922.19
2018-11-13T06:35:35.143Z,923.11
2018-11-13T06:36:35.148Z,923.21
2018-11-13T06:37:35.141Z,923.49
2018-11-13T06:38:35.181Z,923.88
2018-11-13T06:39:35.151Z,923.83
2018-11-13T06:40:35.181Z,923.18
2018-11-13T06:41:35.136Z,923.53
2018-11-13T06:42:35.156Z,923.44
2018-11-13T06:43:35.151Z,923.67
2018-11-13T06:44:35.153Z,923.87
2018-11-13T06:45:35.163Z,924.13
2018-11-13T06:46:35.164Z,924.86
2018-11-13T06:47:35.155Z,925.75
2018-11-13T06:48:35.149Z,926.01
2018-11-13T06:49:35.239Z,926.16
2018-11-13T06:50:35.156Z,926.31
2018-11-13T06:51:35.172Z,926.65
2018-11-13T06:52:35.178Z,926.93
2018-11-13T06:53:35.191Z,926.68
2018-11-13T06:54:35.160Z,927.27
2018-11-13T06:55:35.161Z,927.45
2018-11-13T06:56:35.170Z,926.95
2018-11-13T06:57:35.227Z,927.27
2018-11-13T06:58:35.173Z,927.42
2018-11-13T06:59:35.195Z,927.42
2018-11-13T07:00:35.301Z,927.73
2018-11-13T07:01:35.174Z,927.74
2018-11-13T07:02:35.171Z,927.16
2018-11-13T07:03:35.184Z,927.69
2018-11-13T07:04:35.183Z,927.79
2018-11-13T07:05:35.192Z,927.71
2018-11-13T07:06:35.171Z,928.17
2018-11-13T07:07:35.206Z,928.13
2018-11-13T07:08:35.259Z,928.5
2018-11-13T07:09:35.200Z,928.45
2018-11-13T07:10:35.242Z,928.54
2018-11-13T07:11:35.196Z,928.66
2018-11-13T07:12:35.270Z,928.99
2018-11-13T07:13:35.210Z,929.21
2018-11-13T07:14:35.183Z,929.43
2018-11-13T07:15:35.183Z,929.92
2018-11-13T07:16:35.196Z,929.7
2018-11-13T07:17:35.196Z,930.4
2018-11-13T07:18:35.419Z,930.51
2018-11-13T07:19:35.219Z,930.89
2018-11-13T07:20:35.226Z,929.97
2018-11-13T07:21:35.238Z,930.34
2018-11-13T07:22:35.196Z,930.43
2018-11-13T07:23:35.211Z,930.26
2018-11-13T07:24:35.208Z,929.93
2018-11-13T07:25:35.342Z,930.21
2018-11-13T07:26:35.224Z,930.24
2018-11-13T07:27:35.301Z,930.69
2018-11-13T07:28:35.270Z,930.18
2018-11-13T07:29:35.218Z,930.94
2018-11-13T07:30:35.309Z,930.93
2018-11-13T07:31:35.224Z,930.73
2018-11-13T07:32:35.234Z,931.3
2018-11-13T07:33:35.291Z,930.83
2018-11-13T07:34:35.227Z,930.91
2018-11-13T07:35:35.250Z,931.26
2018-11-13T07:36:35.234Z,931.49
2018-11-13T07:37:35.231Z,932.05
2018-11-13T07:38:35.278Z,932.08
2018-11-13T07:39:35.241Z,932.03
2018-11-13T07:40:35.249Z,932.4
2018-11-13T07:41:35.255Z,932.35
2018-11-13T07:42:35.230Z,932.87
2018-11-13T07:43:35.236Z,932.42
2018-11-13T07:44:35.244Z,932.43
2018-11-13T07:45:35.246Z,932.42
2018-11-13T07:46:35.310Z,932.72
2018-11-13T07:47:35.336Z,932.84
2018-11-13T07:48:35.243Z,933.55
2018-11-13T07:49:35.251Z,933.33
2018-11-13T07:50:35.247Z,933.66
2018-11-13T07:51:35.325Z,933.84
2018-11-13T07:52:35.273Z,933.76
2018-11-13T07:53:35.272Z,934.15
2018-11-13T07:54:35.256Z,934.42
2018-11-13T07:55:35.243Z,934.42
2018-11-13T07:56:35.261Z,934.33
2018-11-13T07:57:35.261Z,934.58
2018-11-13T07:58:35.287Z,934.94
2018-11-13T07:59:35.267Z,935.26
2018-11-13T08:00:35.246Z,935.36
2018-11-13T08:01:35.305Z,934.84
2018-11-13T08:02:35.266Z,934.67
2018-11-13T08:03:35.327Z,934.28
2018-11-13T08:04:35.288Z,933.86
2018-11-13T08:05:35.314Z,933.5
2018-11-13T08:06:35.316Z,933.45
2018-11-13T08:07:35.298Z,933.15
2018-11-13T08:08:35.278Z,933.29
2018-11-13T08:09:35.274Z,933.24
2018-11-13T08:10:35.344Z,933.23
2018-11-13T08:11:35.289Z,933
2018-11-13T08:12:35.317Z,932.86
2018-11-13T08:13:35.390Z,933.45
2018-11-13T08:14:35.357Z,934.13
2018-11-13T08:15:35.367Z,934.33
2018-11-13T08:16:35.329Z,935.03
2018-11-13T08:17:35.286Z,935.34
2018-11-13T08:18:35.290Z,935.63
2018-11-13T08:19:35.301Z,935.86
2018-11-13T08:20:35.315Z,936.11
2018-11-13T08:21:35.303Z,936.91
2018-11-13T08:22:35.306Z,937.26
2018-11-13T08:23:35.293Z,937.11
2018-11-13T08:24:35.310Z,937.84
2018-11-13T08:25:35.321Z,938.09
2018-11-13T08:26:36.339Z,938.26
2018-11-13T08:27:35.369Z,938.66
2018-11-13T08:28:35.363Z,938.76
2018-11-13T08:29:35.323Z,939.16
2018-11-13T08:30:35.303Z,939.25
2018-11-13T08:31:35.311Z,939.49
2018-11-13T08:32:35.328Z,939.59
2018-11-13T08:33:35.331Z,939.74
2018-11-13T08:34:35.333Z,939.73
2018-11-13T08:35:35.604Z,940.38
2018-11-13T08:36:35.327Z,940.88
2018-11-13T08:37:35.312Z,941.11
2018-11-13T08:38:35.344Z,941.71
2018-11-13T08:39:35.329Z,941.6
2018-11-13T08:40:35.333Z,942.53
2018-11-13T08:41:35.347Z,942.81
2018-11-13T08:42:35.324Z,943.31
2018-11-13T08:43:35.323Z,943.15
2018-11-13T08:44:35.328Z,943.52
2018-11-13T08:45:35.370Z,944.18
2018-11-13T08:46:35.339Z,944.11
2018-11-13T08:47:35.347Z,944.9
2018-11-13T08:48:35.357Z,945.52
2018-11-13T08:49:35.338Z,945.94
2018-11-13T08:50:35.502Z,946.53
2018-11-13T08:51:35.339Z,946.94
2018-11-13T08:52:35.349Z,947.53
2018-11-13T08:53:35.411Z,947.69
2018-11-13T08:54:35.500Z,948.54
2018-11-13T08:55:35.643Z,948.97
2018-11-13T08:56:35.355Z,949.8
2018-11-13T08:57:35.342Z,950.37
2018-11-13T08:58:35.448Z,951.11
2018-11-13T08:59:35.462Z,951.83
2018-11-13T09:00:35.351Z,952.25
2018-11-13T09:01:35.377Z,952.64
2018-11-13T09:02:35.359Z,953.19
2018-11-13T09:03:35.353Z,953.53
2018-11-13T09:04:35.362Z,954.07
2018-11-13T09:05:35.363Z,954.89
2018-11-13T09:06:52.148Z,955.56
2018-11-13T09:07:52.138Z,956.47
2018-11-13T09:08:52.117Z,956.81
2018-11-13T09:09:52.121Z,957.83
2018-11-13T09:10:52.132Z,958.25
2018-11-13T09:11:52.298Z,958.78
2018-11-13T09:12:52.144Z,959.42
2018-11-13T09:13:52.133Z,959.92
2018-11-13T09:14:52.140Z,960.56
2018-11-13T09:15:52.144Z,960.8
2018-11-13T09:16:52.144Z,961.91
2018-11-13T09:17:52.217Z,962.51
2018-11-13T09:22:22.665Z,964.2
2018-11-13T09:23:22.662Z,964.86
2018-11-13T09:24:22.624Z,965.23
2018-11-13T09:25:22.630Z,965.78
2018-11-13T09:26:22.640Z,966.43
2018-11-13T09:27:22.650Z,966.39
2018-11-13T09:28:22.618Z,967.3
2018-11-13T09:29:22.639Z,967.08
2018-11-13T09:30:22.943Z,967.73
2018-11-13T09:31:22.698Z,968
2018-11-13T09:32:22.647Z,968.23
2018-11-13T09:33:22.651Z,968.28
2018-11-13T09:34:22.669Z,968.84
2018-11-13T09:35:22.720Z,968.9
2018-11-13T09:36:22.698Z,969.37
2018-11-13T09:37:22.645Z,969.72
2018-11-13T09:38:22.670Z,970.12
2018-11-13T09:39:22.687Z,970.42
2018-11-13T09:40:22.501Z,970.78
2018-11-13T09:41:22.529Z,971
2018-11-13T09:42:22.670Z,971.73
2018-11-13T09:43:22.642Z,972.04
2018-11-13T09:44:22.728Z,972.28
2018-11-13T09:45:22.655Z,973.23
2018-11-13T09:46:22.728Z,973.73
2018-11-13T09:47:22.666Z,973.93
2018-11-13T09:48:22.657Z,974.29
2018-11-13T09:49:22.671Z,975.14
2018-11-13T09:50:22.654Z,975.2
2018-11-13T09:51:22.664Z,975.31
2018-11-13T09:52:22.668Z,975.46
2018-11-13T09:53:22.761Z,975.7
2018-11-13T09:54:22.671Z,975.97
2018-11-13T09:55:22.659Z,976.04
2018-11-13T09:56:22.730Z,976.8
2018-11-13T09:57:22.681Z,976.96
2018-11-13T09:58:22.676Z,977.55
2018-11-13T09:59:22.697Z,978.32
2018-11-13T10:00:22.813Z,978.88
2018-11-13T10:01:22.840Z,979.67
2018-11-13T10:02:23.405Z,980.15
2018-11-13T10:03:23.366Z,980.96
2018-11-13T10:04:23.280Z,981.28
2018-11-13T10:05:22.759Z,981.24
2018-11-13T10:06:22.700Z,982.13
2018-11-13T10:07:22.698Z,982.35
2018-11-13T10:08:22.691Z,982.99
2018-11-13T10:09:22.693Z,983.65
2018-11-13T10:10:22.735Z,983.71
2018-11-13T10:11:23.339Z,984.72
2018-11-13T10:12:22.697Z,985.38
2018-11-13T10:13:22.706Z,985.71
2018-11-13T10:14:22.721Z,986.53
2018-11-13T10:15:22.697Z,987.32
2018-11-13T10:16:22.706Z,988.3
2018-11-13T10:17:22.729Z,989.07
2018-11-13T10:18:22.821Z,990.18
2018-11-13T10:19:22.731Z,990.83
2018-11-13T10:20:22.720Z,991.48
2018-11-13T10:21:22.725Z,992.43
2018-11-13T10:22:22.710Z,993
2018-11-13T10:23:22.700Z,993.45
2018-11-13T10:24:22.729Z,994.07
2018-11-13T10:25:22.716Z,995.16
2018-11-13T10:26:22.837Z,995.88
2018-11-13T10:27:23.040Z,997
2018-11-13T10:28:22.733Z,997.79
2018-11-13T10:29:22.833Z,998.31
2018-11-13T10:30:22.748Z,999.27
2018-11-13T10:31:22.722Z,1000.21
2018-11-13T10:32:22.736Z,1000.78
2018-11-13T10:33:22.743Z,1001.59
2018-11-13T10:34:22.760Z,1002.37
2018-11-13T10:35:22.752Z,1003.01
2018-11-13T10:36:22.760Z,1003.64
2018-11-13T10:37:22.751Z,1004.63
2018-11-13T10:38:22.772Z,1005.31
2018-11-13T10:39:22.785Z,1006.33
2018-11-13T10:40:22.859Z,1007.16
2018-11-13T10:41:22.760Z,1008.06
2018-11-13T10:42:22.741Z,1008.68
2018-11-13T10:43:22.749Z,1009.69
2018-11-13T10:44:22.754Z,1010.33
2018-11-13T10:45:22.750Z,1011.14
2018-11-13T10:46:22.759Z,1012.17
2018-11-13T10:47:22.772Z,1013.34
2018-11-13T10:48:22.749Z,1013.91
2018-11-13T10:49:22.772Z,1014.83
2018-11-13T10:50:22.898Z,1015.84
2018-11-13T10:51:22.751Z,1016.76
2018-11-13T10:52:22.933Z,1017.68
2018-11-13T10:53:22.763Z,1018.41
2018-11-13T10:54:22.773Z,1019.25
2018-11-13T10:55:22.788Z,1020.28
2018-11-13T10:56:22.801Z,1021.32
2018-11-13T10:57:22.769Z,1022.43
2018-11-13T10:58:22.769Z,1023.67
2018-11-13T10:59:22.772Z,1024.41
2018-11-13T11:00:22.829Z,1025.43
2018-11-13T11:01:22.813Z,1026.53
2018-11-13T11:02:22.867Z,1027.56
2018-11-13T11:03:22.773Z,1028.48
2018-11-13T11:04:22.840Z,1029.59
2018-11-13T11:05:22.795Z,1030.84
2018-11-13T11:06:22.778Z,1031.55
2018-11-13T11:07:22.790Z,1032.13
2018-11-13T11:08:22.810Z,1032.91
2018-11-13T11:09:22.805Z,1033.98
2018-11-13T11:10:22.794Z,1034.41
2018-11-13T11:11:22.830Z,1035.47
2018-11-13T11:12:22.790Z,1036.25
2018-11-13T11:13:22.998Z,1036.93
2018-11-13T11:14:22.805Z,1038.03
2018-11-13T11:15:22.786Z,1038.31
2018-11-13T11:16:22.828Z,1039.04
2018-11-13T11:17:22.792Z,1039.03
2018-11-13T11:18:22.792Z,1039.75
2018-11-13T11:19:22.906Z,1040.16
2018-11-13T11:20:22.806Z,1041.19
2018-11-13T11:21:22.827Z,1041.74
2018-11-13T11:22:22.819Z,1042.32
2018-11-13T11:23:22.855Z,1043.2
2018-11-13T11:24:22.806Z,1043.64
2018-11-13T11:25:22.917Z,1044.37
2018-11-13T11:26:22.816Z,1044.72
2018-11-13T11:27:22.815Z,1045.43
2018-11-13T11:28:22.844Z,1046.45
2018-11-13T11:29:22.843Z,1047.43
2018-11-13T11:30:22.813Z,1048.18
2018-11-13T11:31:22.830Z,1048.82
2018-11-13T11:32:23.169Z,1049.69
2018-11-13T11:33:22.834Z,1050.51
2018-11-13T11:37:52.212Z,1053.13
2018-11-13T11:38:52.703Z,1053.57
2018-11-13T11:39:52.218Z,1053.92
2018-11-13T11:40:52.224Z,1054.23
2018-11-13T11:41:52.221Z,1054.55
2018-11-13T11:42:52.214Z,1054.84
2018-11-13T11:43:52.223Z,1055.5
2018-11-13T11:44:52.229Z,1056.06
2018-11-13T11:45:52.334Z,1056.41
2018-11-13T11:46:52.238Z,1056.95
2018-11-13T11:47:52.239Z,1057.41
2018-11-13T11:48:52.291Z,1057.66
2018-11-13T11:49:52.230Z,1058.19
2018-11-13T11:50:52.231Z,1058.42
2018-11-13T11:51:52.236Z,1059.03
2018-11-13T11:52:52.239Z,1059.91
2018-11-13T11:53:52.340Z,1060.92
2018-11-13T11:54:52.226Z,1061.31
2018-11-13T11:55:52.240Z,1062.01
2018-11-13T11:56:52.236Z,1062.32
2018-11-13T11:57:52.270Z,1063.1
2018-11-13T11:58:52.252Z,1063.39
2018-11-13T11:59:52.252Z,1063.88
2018-11-13T12:00:52.321Z,1064.52
2018-11-13T12:01:52.274Z,1065.21
2018-11-13T12:02:52.652Z,1065.56
2018-11-13T12:03:52.251Z,1065.93
2018-11-13T12:04:52.258Z,1066.11
2018-11-13T12:05:52.256Z,1066.52
2018-11-13T12:06:52.271Z,1066.49
2018-11-13T12:07:52.282Z,1066.41
2018-11-13T12:08:52.284Z,1066.53
2018-11-13T12:09:52.263Z,1066.34
2018-11-13T12:10:52.288Z,1066.16
2018-11-13T12:11:52.276Z,1066.35
2018-11-13T12:12:52.269Z,1066.25
2018-11-13T12:13:52.284Z,1066.12
2018-11-13T12:14:52.291Z,1065.74
2018-11-13T12:15:52.264Z,1065.47
2018-11-13T12:16:52.289Z,1065.1
2018-11-13T12:17:52.279Z,1064.79
2018-11-13T12:18:52.357Z,1064.23
2018-11-13T12:19:52.279Z,1063.93
2018-11-13T12:20:52.285Z,1063.76
2018-11-13T12:21:52.289Z,1063.29
2018-11-13T12:22:52.314Z,1063.39
2018-11-13T12:23:52.290Z,1062.84
2018-11-13T12:24:52.291Z,1062.58
2018-11-13T12:25:52.421Z,1062.24
2018-11-13T12:26:52.341Z,1062.13
2018-11-13T12:27:52.295Z,1061.44
2018-11-13T12:28:52.298Z,1061.14
2018-11-13T12:29:52.319Z,1060.54
2018-11-13T12:30:52.302Z,1060.16
2018-11-13T12:31:52.310Z,1059.92
2018-11-13T12:32:52.305Z,1059.92
2018-11-13T12:33:52.301Z,1059.88
2018-11-13T12:34:52.323Z,1059.88
2018-11-13T12:35:52.304Z,1059.92
2018-11-13T12:36:52.306Z,1059.98
2018-11-13T12:37:52.589Z,1060.19
2018-11-13T12:38:52.311Z,1060.34
2018-11-13T12:39:52.321Z,1060.85
2018-11-13T12:40:52.392Z,1060.87